createdAt,value
2023-03-30T00:00:29.759Z,12.50
2023-03-30T00:03:05.905Z,12.53
2023-03-30T00:05:38.341Z,12.55
2023-03-30T00:08:08.827Z,12.56
2023-03-30T00:10:39.301Z,12.50
2023-03-30T00:13:10.078Z,12.51
2023-03-30T00:15:40.189Z,12.47
2023-03-30T00:18:13.097Z,12.44
2023-03-30T00:20:45.373Z,12.40
2023-03-30T00:23:15.871Z,12.40
2023-03-30T00:25:46.538Z,12.33
2023-03-30T00:28:17.137Z,12.23
2023-03-30T00:30:47.344Z,12.07
2023-03-30T00:33:27.516Z,12.01
2023-03-30T00:36:04.180Z,11.94
2023-03-30T00:38:34.343Z,11.98
2023-03-30T00:41:04.776Z,11.98
2023-03-30T00:43:35.123Z,11.95
2023-03-30T00:46:05.557Z,11.97
2023-03-30T00:48:40.846Z,12.00
2023-03-30T00:51:14.218Z,11.97
2023-03-30T00:53:47.485Z,11.94
2023-03-30T00:56:20.424Z,11.89
2023-03-30T00:58:50.751Z,11.92
2023-03-30T01:01:26.020Z,11.78
2023-03-30T01:04:03.933Z,11.76
2023-03-30T01:06:34.943Z,11.74
2023-03-30T01:09:07.144Z,11.65
2023-03-30T01:11:37.312Z,11.58
2023-03-30T01:14:10.151Z,11.53
2023-03-30T01:16:47.013Z,11.54
2023-03-30T01:19:43.902Z,11.57
2023-03-30T01:22:50.381Z,11.57
2023-03-30T01:25:56.604Z,11.52
2023-03-30T01:28:38.772Z,11.52
2023-03-30T01:31:42.279Z,11.48
2023-03-30T01:34:48.235Z,11.53
2023-03-30T01:37:51.283Z,11.60
2023-03-30T01:40:30.798Z,11.55
2023-03-30T01:43:10.284Z,11.53
2023-03-30T01:45:47.386Z,11.48
2023-03-30T01:48:23.929Z,11.45
2023-03-30T01:50:58.438Z,11.53
2023-03-30T01:53:35.902Z,11.48
2023-03-30T01:56:16.600Z,11.45
2023-03-30T01:58:50.662Z,11.38
2023-03-30T02:01:23.455Z,11.33
2023-03-30T02:03:58.488Z,11.33
2023-03-30T02:06:38.962Z,11.30
2023-03-30T02:09:11.578Z,11.13
2023-03-30T02:11:47.884Z,11.18
2023-03-30T02:14:20.532Z,11.26
2023-03-30T02:16:53.082Z,11.28
2023-03-30T02:19:24.323Z,11.36
2023-03-30T02:21:56.768Z,11.34
2023-03-30T02:24:31.732Z,11.32
2023-03-30T02:27:05.367Z,11.35
2023-03-30T02:29:38.070Z,11.31
2023-03-30T02:32:08.992Z,11.30
2023-03-30T02:34:58.184Z,11.32
2023-03-30T02:37:41.913Z,11.22
2023-03-30T02:40:27.820Z,11.18
2023-03-30T02:43:10.328Z,11.18
2023-03-30T02:45:50.810Z,11.24
2023-03-30T02:48:30.140Z,11.27
2023-03-30T02:51:11.782Z,11.21
2023-03-30T02:54:12.442Z,11.24
2023-03-30T02:57:16.488Z,11.31
2023-03-30T02:59:58.600Z,11.27
2023-03-30T03:02:34.096Z,11.27
2023-03-30T03:05:18.811Z,11.20
2023-03-30T03:07:56.594Z,11.17
2023-03-30T03:10:29.510Z,11.18
2023-03-30T03:13:00.199Z,11.19
2023-03-30T03:15:33.251Z,11.18
2023-03-30T03:18:11.564Z,11.14
2023-03-30T03:20:42.205Z,11.13
2023-03-30T03:23:13.017Z,11.15
2023-03-30T03:25:51.644Z,11.11
2023-03-30T03:28:23.444Z,11.04
2023-03-30T03:31:15.233Z,11.05
2023-03-30T03:33:45.613Z,11.09
2023-03-30T03:36:25.557Z,10.96
2023-03-30T03:38:56.842Z,10.94
2023-03-30T03:41:27.074Z,10.92
2023-03-30T03:43:58.273Z,10.92
2023-03-30T03:46:31.422Z,11.03
2023-03-30T03:49:01.710Z,11.01
2023-03-30T03:51:33.083Z,11.05
2023-03-30T03:54:03.602Z,11.00
2023-03-30T03:56:33.849Z,11.11
2023-03-30T03:59:04.933Z,11.16
2023-03-30T04:01:37.796Z,11.20
2023-03-30T04:04:10.441Z,11.15
2023-03-30T04:06:42.533Z,11.14
2023-03-30T04:09:14.373Z,11.08
2023-03-30T04:12:23.174Z,11.07
2023-03-30T04:15:12.684Z,11.09
2023-03-30T04:18:08.917Z,11.10
2023-03-30T04:21:03.222Z,11.14
2023-03-30T04:23:49.105Z,11.14
2023-03-30T04:26:22.527Z,11.05
2023-03-30T04:29:21.451Z,11.04
2023-03-30T04:32:12.953Z,11.09
2023-03-30T04:34:57.507Z,11.18
2023-03-30T04:37:30.519Z,11.17
2023-03-30T04:40:36.692Z,11.23
2023-03-30T04:43:27.459Z,11.26
2023-03-30T04:46:07.214Z,11.16
2023-03-30T04:49:03.875Z,11.18
2023-03-30T04:51:53.447Z,11.20
2023-03-30T04:54:57.588Z,11.22
2023-03-30T04:57:50.743Z,11.25
2023-03-30T05:00:45.531Z,11.21
2023-03-30T05:03:44.018Z,11.30
2023-03-30T05:06:23.157Z,11.32
2023-03-30T05:09:09.883Z,11.39
2023-03-30T05:12:04.779Z,11.41
2023-03-30T05:14:43.555Z,11.29
2023-03-30T05:17:31.117Z,11.34
2023-03-30T05:20:20.456Z,11.34
2023-03-30T05:23:05.355Z,11.32
2023-03-30T05:25:56.546Z,11.35
2023-03-30T05:28:48.026Z,11.48
2023-03-30T05:31:29.524Z,11.48
2023-03-30T05:34:35.158Z,11.53
2023-03-30T05:37:28.233Z,11.57
2023-03-30T05:40:36.743Z,11.74
2023-03-30T05:43:29.931Z,11.82
2023-03-30T05:46:24.173Z,11.78
2023-03-30T05:49:29.822Z,11.69
2023-03-30T05:52:36.215Z,11.68
2023-03-30T05:55:27.901Z,11.68
2023-03-30T05:58:16.922Z,11.61
2023-03-30T06:01:13.563Z,11.64
2023-03-30T06:03:46.537Z,11.64
2023-03-30T06:06:17.286Z,11.66
2023-03-30T06:08:51.442Z,11.72
2023-03-30T06:11:24.730Z,11.67
2023-03-30T06:14:04.357Z,11.69
2023-03-30T06:16:37.198Z,11.74
2023-03-30T06:19:08.155Z,11.81
2023-03-30T06:21:41.209Z,11.84
2023-03-30T06:24:28.822Z,11.92
2023-03-30T06:27:08.446Z,11.93
2023-03-30T06:29:39.180Z,12.10
2023-03-30T06:32:12.438Z,12.27
2023-03-30T06:35:10.500Z,12.33
2023-03-30T06:37:41.376Z,12.51
2023-03-30T06:40:14.498Z,12.70
2023-03-30T06:42:48.124Z,12.82
2023-03-30T06:45:44.623Z,12.89
2023-03-30T06:48:17.404Z,12.89
2023-03-30T06:50:48.982Z,12.93
2023-03-30T06:53:26.040Z,12.94
2023-03-30T06:55:57.614Z,12.88
2023-03-30T06:58:30.022Z,12.76
2023-03-30T07:01:00.136Z,12.67
2023-03-30T07:04:02.087Z,12.72
2023-03-30T07:06:50.855Z,12.80
2023-03-30T07:09:21.360Z,12.87
2023-03-30T07:11:51.385Z,12.91
2023-03-30T07:14:21.856Z,13.03
2023-03-30T07:16:53.401Z,13.10
2023-03-30T07:19:26.541Z,13.25
2023-03-30T07:21:57.510Z,13.68
2023-03-30T07:24:31.419Z,14.58
2023-03-30T07:27:02.533Z,15.55
2023-03-30T07:29:33.236Z,16.41
2023-03-30T07:32:03.506Z,16.74
2023-03-30T07:34:36.486Z,16.65
2023-03-30T07:37:07.650Z,17.01
2023-03-30T07:39:38.270Z,17.11
2023-03-30T07:42:09.028Z,17.25
2023-03-30T07:44:39.070Z,17.51
2023-03-30T07:47:11.760Z,17.86
2023-03-30T07:49:45.664Z,18.17
2023-03-30T07:52:32.426Z,18.36
2023-03-30T07:55:05.720Z,18.73
2023-03-30T07:57:43.136Z,19.13
2023-03-30T08:00:16.123Z,19.48
2023-03-30T08:03:06.233Z,19.55
2023-03-30T08:05:39.077Z,19.63
2023-03-30T08:08:21.588Z,19.63
2023-03-30T08:10:51.980Z,19.17
2023-03-30T08:13:22.694Z,18.49
2023-03-30T08:15:54.566Z,17.79
2023-03-30T08:18:25.982Z,17.33
2023-03-30T08:21:00.543Z,17.27
2023-03-30T08:23:30.564Z,18.04
2023-03-30T08:26:01.375Z,18.97
2023-03-30T08:28:31.542Z,19.78
2023-03-30T08:31:07.543Z,20.32
2023-03-30T08:33:37.998Z,21.09
2023-03-30T08:36:11.197Z,21.88
2023-03-30T08:38:41.472Z,22.53
2023-03-30T08:41:39.089Z,22.97
2023-03-30T08:44:16.307Z,23.04
2023-03-30T08:46:48.476Z,23.01
2023-03-30T08:49:23.293Z,23.34
2023-03-30T08:51:57.734Z,23.71
2023-03-30T08:54:29.978Z,23.81
2023-03-30T08:57:08.411Z,23.91
2023-03-30T08:59:45.938Z,24.18
2023-03-30T09:02:20.796Z,24.11
2023-03-30T09:05:02.296Z,24.04
2023-03-30T09:07:41.020Z,23.47
2023-03-30T09:10:15.567Z,22.89
2023-03-30T09:12:49.530Z,22.96
2023-03-30T09:15:22.585Z,22.96
2023-03-30T09:17:56.804Z,22.91
2023-03-30T09:20:32.550Z,22.34
2023-03-30T09:23:07.356Z,21.88
2023-03-30T09:25:45.098Z,21.65
2023-03-30T09:28:21.552Z,21.61
2023-03-30T09:30:54.963Z,21.61
2023-03-30T09:33:31.065Z,21.58
2023-03-30T09:36:20.283Z,21.58
2023-03-30T09:38:53.119Z,21.48
2023-03-30T09:41:36.756Z,21.21
2023-03-30T09:44:10.019Z,20.91
2023-03-30T09:46:47.028Z,20.80
2023-03-30T09:49:19.229Z,20.49
2023-03-30T09:51:59.031Z,20.28
2023-03-30T09:54:38.721Z,19.97
2023-03-30T09:57:09.418Z,19.89
2023-03-30T09:59:45.944Z,19.94
2023-03-30T10:02:28.002Z,20.02
2023-03-30T10:05:02.626Z,20.16
2023-03-30T10:07:36.687Z,20.33
2023-03-30T10:10:25.458Z,20.30
2023-03-30T10:12:58.337Z,20.05
2023-03-30T10:15:32.774Z,19.77
2023-03-30T10:18:06.972Z,19.64
2023-03-30T10:20:39.372Z,19.55
2023-03-30T10:23:17.629Z,19.34
2023-03-30T10:25:52.318Z,19.15
2023-03-30T10:28:28.198Z,19.06
2023-03-30T10:31:01.759Z,18.95
2023-03-30T10:33:33.016Z,18.84
2023-03-30T10:36:04.110Z,18.84
2023-03-30T10:38:35.907Z,18.83
2023-03-30T10:41:13.232Z,18.66
2023-03-30T10:43:44.764Z,18.54
2023-03-30T10:46:22.849Z,18.46
2023-03-30T10:49:08.206Z,18.58
2023-03-30T10:51:48.973Z,18.78
2023-03-30T10:54:26.374Z,18.91
2023-03-30T10:57:06.539Z,18.96
2023-03-30T11:00:10.001Z,19.30
2023-03-30T11:02:54.551Z,19.62
2023-03-30T11:05:32.362Z,19.64
2023-03-30T11:08:07.024Z,19.59
2023-03-30T11:10:43.490Z,19.78
2023-03-30T11:13:21.716Z,20.82
2023-03-30T11:15:57.832Z,21.88
2023-03-30T11:18:31.924Z,22.14
2023-03-30T11:21:04.755Z,21.84
2023-03-30T11:23:44.362Z,21.29
2023-03-30T11:26:16.955Z,20.88
2023-03-30T11:29:02.041Z,20.69
2023-03-30T11:31:45.302Z,20.48
2023-03-30T11:34:24.623Z,20.44
2023-03-30T11:37:02.513Z,20.55
2023-03-30T11:39:36.814Z,20.53
2023-03-30T11:42:17.640Z,20.31
2023-03-30T11:44:50.636Z,20.02
2023-03-30T11:47:39.894Z,19.95
2023-03-30T11:50:26.695Z,20.06
2023-03-30T11:53:10.058Z,20.83
2023-03-30T11:56:03.776Z,24.01
2023-03-30T11:58:38.526Z,26.55
2023-03-30T12:01:33.223Z,27.56
2023-03-30T12:04:09.813Z,27.14
2023-03-30T12:06:42.972Z,27.76
2023-03-30T12:09:27.572Z,28.17
2023-03-30T12:12:07.876Z,28.25
2023-03-30T12:15:01.736Z,27.55
2023-03-30T12:17:48.420Z,27.36
2023-03-30T12:20:32.512Z,28.29
2023-03-30T12:23:08.637Z,29.39
2023-03-30T12:26:05.191Z,30.10
2023-03-30T12:29:15.026Z,30.52
2023-03-30T12:32:08.281Z,31.23
2023-03-30T12:34:45.213Z,31.44
2023-03-30T12:37:18.658Z,31.32
2023-03-30T12:39:53.773Z,31.88
2023-03-30T12:42:34.875Z,31.74
2023-03-30T12:45:24.037Z,31.28
2023-03-30T12:48:08.142Z,30.33
2023-03-30T12:50:50.606Z,28.55
2023-03-30T12:53:53.249Z,27.38
2023-03-30T12:56:31.823Z,26.58
2023-03-30T12:59:11.656Z,28.05
2023-03-30T13:02:15.251Z,27.41
2023-03-30T13:04:49.213Z,26.81
2023-03-30T13:07:25.627Z,27.42
2023-03-30T13:09:59.491Z,28.04
2023-03-30T13:12:44.841Z,28.05
2023-03-30T13:15:37.835Z,29.07
2023-03-30T13:18:27.947Z,29.78
2023-03-30T13:21:19.805Z,27.52
2023-03-30T13:24:04.420Z,25.74
2023-03-30T13:26:44.713Z,24.63
2023-03-30T13:29:17.452Z,23.96
2023-03-30T13:32:07.805Z,23.79
2023-03-30T13:35:06.761Z,23.03
2023-03-30T13:38:01.592Z,22.51
2023-03-30T13:40:54.569Z,22.22
2023-03-30T13:43:45.199Z,22.38
2023-03-30T13:46:25.184Z,21.89
2023-03-30T13:49:11.387Z,21.52
2023-03-30T13:51:44.331Z,21.26
2023-03-30T13:54:19.902Z,21.15
2023-03-30T13:56:59.347Z,21.03
2023-03-30T13:59:32.217Z,20.73
2023-03-30T14:02:04.399Z,20.65
2023-03-30T14:04:37.524Z,20.50
2023-03-30T14:07:10.548Z,19.98
2023-03-30T14:09:40.894Z,19.31
2023-03-30T14:12:16.705Z,18.62
2023-03-30T14:14:51.030Z,18.03
2023-03-30T14:17:25.699Z,17.79
2023-03-30T14:20:09.395Z,17.53
2023-03-30T14:22:56.101Z,17.36
2023-03-30T14:25:30.353Z,17.17
2023-03-30T14:28:11.796Z,17.18
2023-03-30T14:30:42.082Z,17.24
2023-03-30T14:33:18.568Z,17.21
2023-03-30T14:35:54.034Z,17.12
2023-03-30T14:38:28.513Z,17.11
2023-03-30T14:41:01.640Z,17.11
2023-03-30T14:43:35.647Z,17.14
2023-03-30T14:46:11.810Z,17.26
2023-03-30T14:48:44.770Z,17.40
2023-03-30T14:51:27.670Z,17.32
2023-03-30T14:54:10.879Z,17.25
2023-03-30T14:56:41.417Z,17.15
2023-03-30T14:59:22.875Z,17.05
2023-03-30T15:01:53.802Z,17.07
2023-03-30T15:04:27.555Z,17.12
2023-03-30T15:06:57.833Z,17.19
2023-03-30T15:09:28.594Z,17.16
2023-03-30T15:12:02.403Z,16.92
2023-03-30T15:14:39.849Z,16.72
2023-03-30T15:17:12.966Z,16.49
2023-03-30T15:19:43.732Z,16.27
2023-03-30T15:22:20.869Z,16.07
2023-03-30T15:24:51.263Z,15.93
2023-03-30T15:27:21.543Z,15.68
2023-03-30T15:29:54.971Z,15.50
2023-03-30T15:32:31.891Z,15.39
2023-03-30T15:35:05.956Z,15.34
2023-03-30T15:37:37.440Z,15.29
2023-03-30T15:40:29.114Z,15.29
2023-03-30T15:43:14.431Z,15.30
2023-03-30T15:45:50.374Z,15.34
2023-03-30T15:48:24.548Z,15.32
2023-03-30T15:50:58.384Z,15.28
2023-03-30T15:53:37.292Z,15.35
2023-03-30T15:56:11.014Z,15.41
2023-03-30T15:58:41.669Z,15.37
2023-03-30T16:01:16.943Z,15.27
2023-03-30T16:03:58.056Z,15.30
2023-03-30T16:06:28.148Z,15.26
2023-03-30T16:08:58.198Z,15.15
2023-03-30T16:11:28.352Z,15.14
2023-03-30T16:13:58.488Z,15.16
2023-03-30T16:16:31.446Z,15.25
2023-03-30T16:19:16.480Z,15.26
2023-03-30T16:21:46.605Z,15.40
2023-03-30T16:24:16.767Z,15.41
2023-03-30T16:26:47.049Z,15.35
2023-03-30T16:29:23.341Z,15.30
2023-03-30T16:31:56.974Z,15.37
2023-03-30T16:34:27.571Z,15.37
2023-03-30T16:37:00.562Z,15.46
2023-03-30T16:39:32.583Z,15.55
2023-03-30T16:42:02.561Z,15.65
2023-03-30T16:44:32.562Z,15.73
2023-03-30T16:47:05.322Z,15.80
2023-03-30T16:49:35.607Z,15.83
2023-03-30T16:52:06.351Z,15.82
2023-03-30T16:54:36.391Z,15.84
2023-03-30T16:57:12.122Z,15.78
2023-03-30T16:59:45.178Z,15.68
2023-03-30T17:02:19.454Z,15.65
2023-03-30T17:04:49.588Z,15.71
2023-03-30T17:07:22.490Z,15.69
2023-03-30T17:09:52.534Z,15.76
2023-03-30T17:12:22.592Z,15.79
2023-03-30T17:14:52.796Z,15.78
2023-03-30T17:17:25.609Z,15.79
2023-03-30T17:19:56.459Z,15.79
2023-03-30T17:22:26.642Z,15.73
2023-03-30T17:24:56.839Z,15.60
2023-03-30T17:27:28.647Z,15.55
2023-03-30T17:29:58.989Z,15.61
2023-03-30T17:32:31.719Z,15.63
2023-03-30T17:35:01.737Z,15.56
2023-03-30T17:37:31.900Z,15.52
2023-03-30T17:40:01.895Z,15.49
2023-03-30T17:42:32.014Z,15.51
2023-03-30T17:45:02.147Z,15.44
2023-03-30T17:47:34.883Z,15.33
2023-03-30T17:50:06.565Z,15.23
2023-03-30T17:52:36.720Z,15.08
2023-03-30T17:55:07.578Z,15.01
2023-03-30T17:57:37.672Z,14.93
2023-03-30T18:00:15.643Z,14.91
2023-03-30T18:02:48.594Z,14.79
2023-03-30T18:05:19.554Z,14.72
2023-03-30T18:07:50.115Z,14.64
2023-03-30T18:10:26.197Z,14.54
2023-03-30T18:12:57.781Z,14.49
2023-03-30T18:15:29.983Z,14.43
2023-03-30T18:18:03.624Z,14.35
2023-03-30T18:20:36.076Z,14.32
2023-03-30T18:23:06.658Z,14.32
2023-03-30T18:25:36.805Z,14.30
2023-03-30T18:28:20.669Z,14.20
2023-03-30T18:30:53.259Z,14.14
2023-03-30T18:33:27.334Z,14.13
2023-03-30T18:36:05.096Z,14.11
2023-03-30T18:38:36.200Z,14.11
2023-03-30T18:41:06.752Z,14.12
2023-03-30T18:43:36.837Z,14.04
2023-03-30T18:46:07.243Z,14.03
2023-03-30T18:48:40.271Z,13.98
2023-03-30T18:51:13.935Z,13.98
2023-03-30T18:53:44.057Z,13.98
2023-03-30T18:56:15.554Z,14.04
2023-03-30T18:58:48.068Z,14.07
2023-03-30T19:01:18.580Z,14.09
2023-03-30T19:03:52.941Z,14.18
2023-03-30T19:06:24.916Z,14.23
2023-03-30T19:08:55.315Z,14.22
2023-03-30T19:11:32.772Z,14.20
2023-03-30T19:14:04.651Z,14.12
2023-03-30T19:16:35.149Z,14.11
2023-03-30T19:19:10.134Z,14.06
2023-03-30T19:21:40.263Z,14.09
2023-03-30T19:24:13.033Z,14.08
2023-03-30T19:26:43.160Z,14.06
2023-03-30T19:29:13.286Z,14.12
2023-03-30T19:31:43.443Z,14.27
2023-03-30T19:34:16.185Z,14.37
2023-03-30T19:36:46.245Z,14.39
2023-03-30T19:39:16.670Z,14.39
2023-03-30T19:41:47.020Z,14.46
2023-03-30T19:44:17.143Z,14.43
2023-03-30T19:46:47.300Z,14.42
2023-03-30T19:49:20.052Z,14.39
2023-03-30T19:51:50.434Z,14.34
2023-03-30T19:54:20.691Z,14.40
2023-03-30T19:56:51.248Z,14.35
2023-03-30T19:59:21.995Z,14.38
2023-03-30T20:01:52.246Z,14.45
2023-03-30T20:04:25.582Z,14.40
2023-03-30T20:06:56.302Z,14.44
2023-03-30T20:09:27.738Z,14.50
2023-03-30T20:11:58.587Z,14.45
2023-03-30T20:14:29.011Z,14.39
2023-03-30T20:17:02.910Z,14.34
2023-03-30T20:19:35.706Z,14.23
2023-03-30T20:22:06.121Z,14.14
2023-03-30T20:24:37.152Z,13.98
2023-03-30T20:27:07.605Z,13.76
2023-03-30T20:29:37.904Z,13.58
2023-03-30T20:32:08.297Z,13.48
2023-03-30T20:34:42.734Z,13.45
2023-03-30T20:37:12.764Z,13.38
2023-03-30T20:39:43.338Z,13.34
2023-03-30T20:42:14.426Z,13.29
2023-03-30T20:44:50.560Z,13.25
2023-03-30T20:47:23.568Z,13.24
2023-03-30T20:49:56.500Z,13.28
2023-03-30T20:52:26.690Z,13.25
2023-03-30T20:54:57.260Z,13.20
2023-03-30T20:57:27.613Z,13.17
2023-03-30T20:59:57.778Z,13.07
2023-03-30T21:02:29.600Z,12.93
2023-03-30T21:05:04.143Z,12.88
2023-03-30T21:07:34.825Z,12.83
2023-03-30T21:10:04.899Z,12.77
2023-03-30T21:12:35.014Z,12.77
2023-03-30T21:15:05.079Z,12.74
2023-03-30T21:17:35.144Z,12.74
2023-03-30T21:20:10.072Z,12.76
2023-03-30T21:22:40.110Z,12.78
2023-03-30T21:25:11.486Z,12.75
2023-03-30T21:27:41.752Z,12.83
2023-03-30T21:30:16.350Z,12.83
2023-03-30T21:32:46.797Z,12.84
2023-03-30T21:35:19.556Z,12.86
2023-03-30T21:37:55.129Z,12.85
2023-03-30T21:40:25.425Z,12.86
2023-03-30T21:42:55.552Z,12.84
2023-03-30T21:45:25.866Z,12.84
2023-03-30T21:47:55.925Z,12.93
2023-03-30T21:50:28.714Z,12.97
2023-03-30T21:53:00.672Z,12.90
2023-03-30T21:55:30.766Z,12.89
2023-03-30T21:58:00.800Z,12.97
2023-03-30T22:00:30.892Z,12.98
2023-03-30T22:03:04.077Z,12.99
2023-03-30T22:05:46.149Z,12.97
2023-03-30T22:08:18.417Z,13.06
2023-03-30T22:10:48.667Z,13.18
2023-03-30T22:13:18.865Z,13.21
2023-03-30T22:16:01.176Z,13.20
2023-03-30T22:18:32.240Z,13.24
2023-03-30T22:21:08.174Z,13.19
2023-03-30T22:23:38.481Z,13.22
2023-03-30T22:26:08.820Z,13.20
2023-03-30T22:28:39.127Z,13.19
2023-03-30T22:31:10.077Z,13.18
2023-03-30T22:33:40.685Z,13.21
2023-03-30T22:36:21.946Z,13.25
2023-03-30T22:38:53.329Z,13.23
2023-03-30T22:41:24.516Z,13.33
2023-03-30T22:43:55.532Z,13.35
2023-03-30T22:46:27.161Z,13.40
2023-03-30T22:48:57.940Z,13.48
2023-03-30T22:51:30.584Z,13.53
2023-03-30T22:54:01.489Z,13.53
2023-03-30T22:56:32.512Z,13.53
2023-03-30T22:59:03.594Z,13.53
2023-03-30T23:01:33.664Z,13.53
2023-03-30T23:04:05.315Z,13.45
2023-03-30T23:06:38.305Z,13.39
2023-03-30T23:09:08.457Z,13.39
2023-03-30T23:11:42.517Z,13.36
2023-03-30T23:14:12.864Z,13.32
2023-03-30T23:16:43.026Z,13.27
2023-03-30T23:19:13.915Z,13.17
2023-03-30T23:21:47.956Z,13.09
2023-03-30T23:24:17.947Z,13.08
2023-03-30T23:26:47.889Z,13.05
2023-03-30T23:29:18.184Z,13.04
2023-03-30T23:31:48.734Z,13.02
2023-03-30T23:34:19.005Z,13.03
2023-03-30T23:36:53.395Z,12.99
2023-03-30T23:39:26.172Z,12.97
2023-03-30T23:41:56.987Z,13.02
2023-03-30T23:44:28.222Z,13.05
2023-03-30T23:46:58.572Z,13.09
2023-03-30T23:49:31.430Z,13.17
2023-03-30T23:52:04.082Z,13.18
2023-03-30T23:54:40.942Z,13.16
2023-03-30T23:57:11.613Z,13.14
2023-03-30T23:59:41.620Z,13.12
